Freeburg, Missouri
Current Conditions -  °F | °C
As of 11:53 AM on Wednesday 28 Jan 2015 (Local Time) from KVIH Reporting Station
Clear Clear  
Wind Chill: 41°   Ceiling: Unl
Heat Index: 48°   Visibility: 10mi
Dew Point: 33°   Wind: 22mph
Humidity: 56%   Direction: 170°S
Pressure: 30.06"   Gusts: 26mph
Location:  38.32°N, 91.92°W
Report Text: KVIH 281753Z AUTO 17019G23KT 10SM CLR 09/01 A3006 RMK AO2 PK WND 16026/1704 SLP182 T00890006 10089 20000 58021
Loading
Personal Weather Stations






























Interactive Weather Map New forecast layout! Learn more

10-Day Weather Forecast

Advertisements
Track Severe Weather on mobile